« Back
NWS Peachtree City, Ga » Text Product » MCN Terminal Aerodrome Forecast


Printer-friendly Version
Current Version              Previous Versions:   1  2  3  4  5  6  7  8  9  

Terminal Aerodrome Forecast

120
FTUS42 KFFC 221127
TAFMCN
TAF
KMCN 221127Z 2212/2312 VRB04KT P6SM SKC
     FM221400 02005KT P6SM SKC
     FM221700 05006KT P6SM FEW040
     FM230200 03004KT P6SM SKC=

USA.gov is the U.S. government's official web portal to all federal, state and local government web resources and services.